الصفحة الرئيسية
METAR-TAF:

METAR-TAF

مطار :

مطار كريستيانو رونالدو

فونشال, جزر ماديرا, البرتغال

دائرة عرض: 32-41-52N, خط طول: 016-46-28W, ارتفاع: 59 متر

مراقبة الطقس الحالي

تاريخ ووقت الإصدار 25 دقيقة قبل الساعة 11:30UTC
ريح 9 عقدة من الشمال الشرقي
درجة الحرارة 20°درجة مئوية
الرطوبة 60%
ضغط 1026 hPa
الرؤية 10 كم أو أكثر
غيوم قليلة على ارتفاع 1600 قدم

METAR: LPMA 171130Z 04009KT 9999 FEW016 20/12 Q1026

زمن: 11:55 (11:55 UTC)

توقعات

تاريخ ووقت الإصدار 55 دقيقة قبل الساعة 11:00UTC
التوقعات صالحة من17 الساعة 12 UTC إلى 18 الساعة 12 UTC
ريح 10 عقدة من الشمال/الشمال الشرقي
الرؤية 10 كم أو أكثر
غيوم متفرقة على ارتفاع 1600 قدم
مؤقت
من 17 الساعة 12 UTC إلى 18 الساعة 12 UTC
غيوم مفككة على ارتفاع 1500 قدم
أصبح
من 17 الساعة 19 UTC إلى 17 الساعة 22 UTC
ريح 10 عقدة من الشمال
نظرية الاحتمالات 30% :
مؤقت
من 17 الساعة 22 UTC إلى 18 الساعة 12 UTC
الرؤية: 6000 متر
غيوم مفككة على ارتفاع 1300 قدم
مطر خفيف

TAF: LPMA 171100Z 1712/1812 02010KT 9999 SCT016 TEMPO 1712/1812 BKN015 BECMG 1719/1722 35010KT PROB30 TEMPO 1722/1812 6000 -RA BKN013

أرصاد الطقس والتوقعات من أكثر من 4000 مطار (تقارير الطقس للمطار METAR والتنبؤ بالطقس بالمطارTAF).

المحطات المتاحة هي النقط الصفراء والحمراء على الخريطة.

حرك المؤشر فوق النقطة لمعرفة اسم المحطة.

ثم انقر لمعرفة أرصاد وتوقعات الطقس.

لتغيير الخارطة: اضغط على الأزرار الخضراء مع رمز الصليب الأسود للتكبير. على الزر الأخضر مع شرطة للتصغير، أو على الأسهم الخضراء للخرائط المجاورة.


METAR-TAF: